Time;durP1;ratioP1;P1;durP2;ratioP2;P2;SDS_P1;SDS_P2;PMS_P1;PMS_P2;Temp;Humidity;BMP_temperature;BMP_pressure;BME280_temperature;BME280_humidity;BME280_pressure;Samples;Min_cycle;Max_cycle;Signal;HPM_P1;HPM_P2
2023/06/03 00:02:08;;;;;;;27.30;13.05;;;;;;;11.95;87.36;102409.13;6098826;19;20010;-74
2023/06/03 00:04:14;;;;;;;21.00;10.48;;;;;;;11.94;87.41;102411.78;6100803;19;20007;-74
2023/06/03 00:06:19;;;;;;;29.35;11.77;;;;;;;11.88;87.22;102412.78;6098592;19;20019;-74
2023/06/03 00:08:45;;;;;;;26.95;11.48;;;;;;;11.86;87.61;102414.59;6091270;19;20785;-74
2023/06/03 00:10:53;;;;;;;20.98;9.18;;;;;;;11.84;87.35;102419.84;6098423;19;20041;-74
2023/06/03 00:12:57;;;;;;;23.60;10.68;;;;;;;11.83;87.73;102420.75;6095990;19;20493;-74
2023/06/03 00:15:02;;;;;;;26.75;11.63;;;;;;;11.86;87.99;102422.50;6099361;19;20503;-74
2023/06/03 00:17:15;;;;;;;25.25;11.23;;;;;;;11.85;87.68;102415.47;6094910;19;20010;-74
2023/06/03 00:19:22;;;;;;;28.15;11.60;;;;;;;11.79;87.88;102418.19;6100810;19;20095;-74
2023/06/03 00:21:30;;;;;;;28.30;11.68;;;;;;;11.76;87.87;102413.88;6094702;19;20018;-73
2023/06/03 00:23:39;;;;;;;24.33;10.90;;;;;;;11.73;87.85;102410.44;6098312;19;20314;-74
2023/06/03 00:25:46;;;;;;;21.40;10.85;;;;;;;11.73;88.57;102413.94;6099662;19;20750;-75
2023/06/03 00:27:55;;;;;;;21.83;10.13;;;;;;;11.74;88.40;102414.78;6096567;19;20010;-75
2023/06/03 00:30:03;;;;;;;20.60;9.70;;;;;;;11.72;88.34;102406.94;6098788;19;20002;-74
2023/06/03 00:32:09;;;;;;;20.60;8.68;;;;;;;11.79;88.74;102418.19;6096956;19;20018;-73
2023/06/03 00:34:20;;;;;;;25.45;9.75;;;;;;;11.83;88.86;102410.22;6073385;19;20011;-74
2023/06/03 00:36:30;;;;;;;23.27;8.65;;;;;;;11.80;88.19;102407.66;6097112;19;20456;-74
2023/06/03 00:38:34;;;;;;;18.63;8.15;;;;;;;11.81;88.56;102409.38;6088565;19;20015;-74
2023/06/03 00:40:40;;;;;;;16.73;8.05;;;;;;;11.80;88.51;102415.56;6097273;19;20007;-74
2023/06/03 00:42:45;;;;;;;16.40;8.23;;;;;;;11.78;88.55;102408.56;6094716;19;20023;-75
2023/06/03 00:44:54;;;;;;;16.50;7.70;;;;;;;11.77;88.79;102402.44;6094844;19;20014;-74
2023/06/03 00:47:00;;;;;;;17.63;8.05;;;;;;;11.77;88.86;102409.47;6094917;19;20010;-74
2023/06/03 00:49:07;;;;;;;16.63;7.68;;;;;;;11.79;88.67;102399.75;6093555;19;20014;-75
2023/06/03 00:51:17;;;;;;;15.45;6.93;;;;;;;11.78;88.71;102401.53;6072863;19;20026;-76
2023/06/03 00:53:23;;;;;;;20.23;7.88;;;;;;;11.78;88.78;102406.81;6093784;19;20021;-74
2023/06/03 00:55:33;;;;;;;15.40;7.18;;;;;;;11.74;88.68;102404.25;6099781;19;20464;-76
2023/06/03 00:57:40;;;;;;;18.02;7.30;;;;;;;11.72;88.80;102401.69;6092066;19;20014;-74
2023/06/03 00:59:46;;;;;;;15.50;6.72;;;;;;;11.68;88.71;102401.75;6095909;19;20007;-74
2023/06/03 01:01:55;;;;;;;15.63;7.60;;;;;;;11.62;88.71;102405.38;6096017;19;20010;-75
2023/06/03 01:04:07;;;;;;;15.27;6.55;;;;;;;11.60;88.75;102408.03;6098560;19;20009;-75
2023/06/03 01:06:26;;;;;;;12.18;6.80;;;;;;;11.59;88.70;102400.19;6088730;19;20050;-76
2023/06/03 01:08:45;;;;;;;14.68;7.20;;;;;;;11.59;88.95;102402.81;6087732;19;20007;-73
2023/06/03 01:11:03;;;;;;;13.02;5.68;;;;;;;11.58;89.00;102407.19;6074057;19;20008;-75
2023/06/03 01:13:17;;;;;;;12.63;5.78;;;;;;;11.56;88.76;102409.00;6095778;19;20529;-73
2023/06/03 01:15:27;;;;;;;12.52;6.03;;;;;;;11.53;89.65;102408.19;6099295;19;20011;-74
2023/06/03 01:17:45;;;;;;;11.95;5.97;;;;;;;11.53;89.11;102405.56;6091991;19;20020;-74
2023/06/03 01:19:56;;;;;;;11.88;5.50;;;;;;;11.49;89.20;102407.38;6096276;19;20070;-75
2023/06/03 01:22:06;;;;;;;16.65;6.07;;;;;;;11.45;88.89;102412.72;6093714;19;20526;-75
2023/06/03 01:24:24;;;;;;;12.20;5.50;;;;;;;11.41;89.70;102404.91;6098962;19;20279;-73
2023/06/03 01:26:31;;;;;;;12.57;5.60;;;;;;;11.39;89.35;102411.94;6090421;19;20518;-73
2023/06/03 01:28:38;;;;;;;11.10;5.40;;;;;;;11.41;89.22;102407.53;6092070;19;19998;-73
2023/06/03 01:30:43;;;;;;;8.48;4.78;;;;;;;11.42;89.24;102405.75;6096691;19;20010;-74
2023/06/03 01:32:54;;;;;;;10.45;5.20;;;;;;;11.43;89.24;102408.38;6093700;19;20495;-74
2023/06/03 01:35:02;;;;;;;9.85;4.90;;;;;;;11.43;88.86;102410.16;6097303;19;20011;-71
2023/06/03 01:37:10;;;;;;;9.73;5.43;;;;;;;11.39;89.26;102411.94;6085930;19;20009;-73
2023/06/03 01:39:18;;;;;;;9.63;4.78;;;;;;;11.36;88.91;102408.53;6094596;19;20660;-75
2023/06/03 01:41:40;;;;;;;11.05;5.10;;;;;;;11.37;88.91;102418.13;6093368;19;20094;-74
2023/06/03 01:43:45;;;;;;;14.75;5.80;;;;;;;11.36;88.87;102414.66;6089601;19;20014;-74
2023/06/03 01:45:51;;;;;;;11.27;5.10;;;;;;;11.34;89.07;102411.16;6094400;19;20014;-74
2023/06/03 01:48:00;;;;;;;9.70;4.10;;;;;;;11.29;88.56;102417.41;6092052;19;20013;-75
2023/06/03 01:50:07;;;;;;;8.35;4.03;;;;;;;11.25;88.71;102423.66;6092887;19;20038;-74
2023/06/03 01:52:19;;;;;;;9.57;4.80;;;;;;;11.22;88.81;102419.31;6085751;19;20703;-73
2023/06/03 01:54:29;;;;;;;8.48;4.70;;;;;;;11.21;88.93;102428.06;6097264;19;20551;-75
2023/06/03 01:56:37;;;;;;;10.60;4.75;;;;;;;11.18;89.00;102430.75;6095917;19;20087;-74
2023/06/03 01:58:44;;;;;;;8.80;4.43;;;;;;;11.17;88.94;102415.88;6082878;19;20010;-76
2023/06/03 02:00:50;;;;;;;8.68;4.30;;;;;;;11.14;88.81;102421.22;6071134;19;20723;-73
2023/06/03 02:02:55;;;;;;;10.00;4.60;;;;;;;11.14;88.75;102413.31;6097733;19;20541;-74
2023/06/03 02:05:03;;;;;;;9.13;3.80;;;;;;;11.11;88.66;102418.59;6100123;19;20006;-74
2023/06/03 02:07:10;;;;;;;8.00;3.83;;;;;;;11.09;88.54;102413.38;6098055;19;21064;-73
2023/06/03 02:09:15;;;;;;;9.30;4.15;;;;;;;11.08;88.49;102416.03;6099029;19;20433;-74
2023/06/03 02:11:23;;;;;;;7.47;3.90;;;;;;;11.08;89.01;102416.03;6092591;19;20740;-73
2023/06/03 02:13:33;;;;;;;9.15;4.05;;;;;;;11.06;88.58;102418.72;6096503;19;20006;-74
2023/06/03 02:15:42;;;;;;;6.50;3.90;;;;;;;11.05;88.67;102410.81;6097791;19;20006;-75
2023/06/03 02:17:48;;;;;;;8.57;3.83;;;;;;;11.01;88.44;102406.53;6091775;19;20003;-74
2023/06/03 02:19:55;;;;;;;8.43;4.05;;;;;;;10.99;88.74;102404.78;6096196;19;20477;-74
2023/06/03 02:22:05;;;;;;;10.60;4.90;;;;;;;11.03;88.48;102409.97;6097782;19;20050;-74
2023/06/03 02:24:10;;;;;;;9.55;4.55;;;;;;;11.02;88.93;102403.00;6095094;19;20078;-73
2023/06/03 02:26:18;;;;;;;10.05;4.63;;;;;;;10.99;88.61;102401.28;6096327;19;20107;-74
2023/06/03 02:28:24;;;;;;;9.93;4.10;;;;;;;10.95;88.61;102395.22;6083039;19;20014;-75
2023/06/03 02:30:34;;;;;;;9.75;4.13;;;;;;;10.94;88.62;102395.22;6097136;19;20448;-74
2023/06/03 02:32:41;;;;;;;7.40;4.43;;;;;;;10.93;88.25;102394.38;6093767;19;20085;-75
2023/06/03 02:34:49;;;;;;;8.68;4.40;;;;;;;10.92;88.52;102397.00;6093802;19;20011;-76
2023/06/03 02:36:58;;;;;;;7.60;4.43;;;;;;;10.92;88.55;102394.38;6097018;19;20185;-74
2023/06/03 02:39:07;;;;;;;8.25;4.25;;;;;;;10.90;88.30;102393.53;6095715;19;20023;-74
2023/06/03 02:41:14;;;;;;;8.18;4.10;;;;;;;10.85;88.56;102396.25;6098346;19;21028;-75
2023/06/03 02:43:19;;;;;;;8.90;4.32;;;;;;;10.84;88.44;102397.13;6096150;19;20026;-73
2023/06/03 02:45:24;;;;;;;10.73;4.63;;;;;;;10.83;88.67;102394.56;6096072;19;20011;-74
2023/06/03 02:47:34;;;;;;;10.13;5.28;;;;;;;10.81;88.52;102391.06;6095317;19;20483;-74
2023/06/03 02:49:44;;;;;;;9.32;4.80;;;;;;;10.82;88.53;102396.31;6095158;19;20053;-74
2023/06/03 02:51:59;;;;;;;8.10;3.97;;;;;;;10.81;88.39;102391.94;6095631;19;20043;-74
2023/06/03 02:54:04;;;;;;;9.80;4.30;;;;;;;10.80;88.36;102389.34;6093564;19;20010;-73
2023/06/03 02:56:11;;;;;;;8.65;4.85;;;;;;;10.79;88.38;102401.59;6091131;19;20670;-74
2023/06/03 02:58:16;;;;;;;7.75;4.70;;;;;;;10.79;88.20;102398.09;6097633;19;20011;-74
2023/06/03 03:00:25;;;;;;;7.70;4.43;;;;;;;10.76;88.05;102402.53;6095679;19;20792;-75
2023/06/03 03:02:37;;;;;;;9.48;4.20;;;;;;;10.74;88.43;102401.69;6091746;19;20403;-74
2023/06/03 03:04:42;;;;;;;6.90;4.22;;;;;;;10.74;88.26;102396.44;6098792;19;20074;-74
2023/06/03 03:06:49;;;;;;;9.75;4.53;;;;;;;10.72;88.14;102392.09;6096188;19;20476;-74
2023/06/03 03:08:55;;;;;;;10.35;5.53;;;;;;;10.73;88.23;102401.72;6096218;19;20010;-75
2023/06/03 03:11:03;;;;;;;9.25;4.30;;;;;;;10.69;87.94;102387.75;6096174;19;20007;-73
2023/06/03 03:13:11;;;;;;;9.10;4.53;;;;;;;10.70;88.14;102399.13;6070876;19;20089;-73
2023/06/03 03:15:16;;;;;;;12.32;5.30;;;;;;;10.68;87.76;102398.28;6093635;19;20027;-75
2023/06/03 03:17:27;;;;;;;11.63;4.63;;;;;;;10.67;88.14;102405.31;6098859;19;20375;-75
2023/06/03 03:19:39;;;;;;;8.75;4.60;;;;;;;10.65;87.98;102403.59;6078391;19;20013;-74
2023/06/03 03:21:50;;;;;;;8.17;4.13;;;;;;;10.59;87.90;102404.56;6077649;19;20617;-75
2023/06/03 03:24:01;;;;;;;8.98;5.43;;;;;;;10.57;88.38;102406.34;6089200;19;20010;-73
2023/06/03 03:26:11;;;;;;;8.85;4.72;;;;;;;10.58;88.19;102401.94;6100358;19;20014;-73
2023/06/03 03:28:22;;;;;;;10.05;4.95;;;;;;;10.56;87.85;102407.25;6095871;19;20690;-75
2023/06/03 03:30:29;;;;;;;10.85;4.95;;;;;;;10.58;88.03;102401.94;6099295;19;20015;-74
2023/06/03 03:32:35;;;;;;;10.60;5.65;;;;;;;10.57;88.16;102397.59;6075620;19;20015;-75
2023/06/03 03:34:49;;;;;;;11.80;5.43;;;;;;;10.55;87.95;102402.88;6099708;19;20011;-74
2023/06/03 03:36:58;;;;;;;12.02;5.47;;;;;;;10.56;87.89;102402.00;6098647;19;20030;-74
2023/06/03 03:39:07;;;;;;;10.65;5.65;;;;;;;10.58;87.84;102401.94;6101459;19;20472;-76
2023/06/03 03:41:14;;;;;;;10.27;5.03;;;;;;;10.54;87.96;102407.25;6099276;19;20002;-74
2023/06/03 03:43:23;;;;;;;8.68;4.93;;;;;;;10.53;87.82;102402.91;6101713;19;20441;-75
2023/06/03 03:45:31;;;;;;;10.93;4.78;;;;;;;10.53;88.03;102409.91;6100867;19;20118;-73
2023/06/03 03:47:37;;;;;;;15.25;5.00;;;;;;;10.50;87.76;102400.28;6100032;19;20084;-74
2023/06/03 03:49:43;;;;;;;9.38;4.82;;;;;;;10.49;87.54;102409.09;6100757;19;20002;-73
2023/06/03 03:51:54;;;;;;;12.25;5.85;;;;;;;10.49;87.61;102406.47;6089589;19;20074;-75
2023/06/03 03:54:03;;;;;;;13.57;5.53;;;;;;;10.50;87.72;102405.56;6095094;19;20014;-74
2023/06/03 03:56:09;;;;;;;11.70;5.53;;;;;;;10.48;87.48;102403.88;6100072;19;20047;-74
2023/06/03 03:58:28;;;;;;;9.82;5.47;;;;;;;10.47;87.51;102405.59;6099350;19;20067;-74
2023/06/03 04:00:36;;;;;;;9.73;5.55;;;;;;;10.48;87.66;102412.63;6091877;19;20084;-74
2023/06/03 04:02:46;;;;;;;10.00;5.30;;;;;;;10.49;87.64;102411.72;6098765;19;20039;-74
2023/06/03 04:04:56;;;;;;;10.45;5.18;;;;;;;10.49;87.55;102414.34;6094684;19;20400;-74
2023/06/03 04:07:07;;;;;;;13.73;5.97;;;;;;;10.52;87.34;102418.69;6096419;19;20010;-74
2023/06/03 04:09:13;;;;;;;11.75;6.05;;;;;;;10.52;87.50;102414.28;6096622;19;20113;-75
2023/06/03 04:11:25;;;;;;;10.98;5.85;;;;;;;10.53;87.00;102417.78;6098053;19;20011;-74
2023/06/03 04:13:35;;;;;;;12.63;5.75;;;;;;;10.55;86.95;102421.25;6093329;19;20360;-75
2023/06/03 04:15:44;;;;;;;13.20;5.60;;;;;;;10.53;87.14;102410.78;6096313;19;20009;-75
2023/06/03 04:17:52;;;;;;;10.45;5.05;;;;;;;10.56;86.65;102423.03;6098049;19;20018;-75
2023/06/03 04:19:58;;;;;;;13.68;6.28;;;;;;;10.58;86.61;102415.09;6097918;19;20010;-74
2023/06/03 04:22:11;;;;;;;12.35;6.13;;;;;;;10.63;86.91;102419.38;6098725;19;20385;-73
2023/06/03 04:24:18;;;;;;;10.82;5.57;;;;;;;10.65;86.53;102422.00;6098642;19;20002;-74
2023/06/03 04:26:28;;;;;;;12.65;5.88;;;;;;;10.66;86.16;102418.47;6099728;19;20022;-73
2023/06/03 04:28:35;;;;;;;9.15;5.80;;;;;;;10.71;85.98;102416.63;6098994;19;20010;-73
2023/06/03 04:30:47;;;;;;;10.60;5.20;;;;;;;10.77;86.04;102419.19;6099222;19;20081;-75
2023/06/03 04:32:54;;;;;;;8.80;5.32;;;;;;;10.80;85.50;102419.13;6099896;19;20102;-74
2023/06/03 04:35:03;;;;;;;10.38;5.82;;;;;;;10.86;85.65;102419.03;6086769;19;20039;-76
2023/06/03 04:37:15;;;;;;;12.27;5.95;;;;;;;10.93;85.28;102417.19;6080910;19;20036;-74
2023/06/03 04:39:24;;;;;;;12.90;6.55;;;;;;;11.02;85.16;102413.50;6099530;19;20035;-74
2023/06/03 04:41:32;;;;;;;11.63;4.75;;;;;;;11.10;84.84;102415.09;6098284;19;20139;-75
2023/06/03 04:43:40;;;;;;;10.52;6.00;;;;;;;11.21;84.11;102409.66;6095143;19;20011;-75
2023/06/03 04:45:49;;;;;;;11.60;6.03;;;;;;;11.30;83.20;102420.03;6095122;19;20026;-74
2023/06/03 04:48:01;;;;;;;11.07;5.75;;;;;;;11.42;83.13;102422.41;6092214;19;20003;-74
2023/06/03 04:50:17;;;;;;;11.85;6.20;;;;;;;11.54;82.10;102417.84;6071543;19;20010;-75
2023/06/03 04:52:25;;;;;;;10.63;5.70;;;;;;;11.63;81.73;102422.91;6093598;19;19999;-74
2023/06/03 04:54:31;;;;;;;11.85;5.53;;;;;;;11.73;81.31;102407.81;6093552;19;20013;-75
2023/06/03 04:56:38;;;;;;;11.45;5.38;;;;;;;11.92;80.68;102413.59;6094146;19;20015;-74
2023/06/03 04:58:43;;;;;;;11.73;5.68;;;;;;;12.05;80.37;102417.69;6094172;19;20010;-74
2023/06/03 05:00:50;;;;;;;11.55;5.50;;;;;;;12.14;79.09;102420.16;6093093;19;20027;-75
2023/06/03 05:03:01;;;;;;;12.38;5.70;;;;;;;12.30;79.33;102416.25;6088154;19;20040;-75
2023/06/03 05:05:11;;;;;;;12.10;5.43;;;;;;;12.45;78.30;102420.34;6090073;19;20517;-74
2023/06/03 05:07:17;;;;;;;16.08;6.28;;;;;;;12.56;77.47;102422.72;6093911;19;20325;-75
2023/06/03 05:09:27;;;;;;;9.73;6.00;;;;;;;12.64;75.87;102425.19;6092243;19;20007;-75
2023/06/03 05:11:32;;;;;;;12.63;5.95;;;;;;;12.90;76.70;102420.13;6092336;19;20426;-75
2023/06/03 05:13:37;;;;;;;11.13;6.32;;;;;;;13.08;75.72;102420.56;6091281;19;20010;-74
2023/06/03 05:15:44;;;;;;;12.93;6.45;;;;;;;13.25;75.00;102422.78;6091568;19;20410;-74
2023/06/03 05:17:52;;;;;;;10.85;6.00;;;;;;;13.44;74.48;102428.47;6072873;19;20359;-74
2023/06/03 05:19:57;;;;;;;12.35;5.68;;;;;;;13.61;74.57;102437.66;6092472;19;20014;-74
2023/06/03 05:22:03;;;;;;;9.30;5.38;;;;;;;13.81;73.74;102436.22;6095316;19;20146;-74
2023/06/03 05:24:12;;;;;;;9.90;6.07;;;;;;;13.93;72.56;102443.81;6092128;19;20011;-74
2023/06/03 05:26:30;;;;;;;10.77;5.53;;;;;;;14.04;71.74;102441.72;6096274;19;20013;-74
2023/06/03 05:28:35;;;;;;;11.48;5.40;;;;;;;14.18;71.50;102448.38;6098432;19;20017;-74
2023/06/03 05:30:44;;;;;;;13.30;6.00;;;;;;;14.28;70.15;102445.41;6101465;19;20015;-74
2023/06/03 05:32:50;;;;;;;11.50;5.38;;;;;;;14.39;68.74;102445.06;6096971;19;20034;-74
2023/06/03 05:34:55;;;;;;;11.45;5.35;;;;;;;14.46;68.66;102441.31;6096155;19;20118;-73
2023/06/03 05:37:11;;;;;;;12.13;5.70;;;;;;;14.56;67.97;102449.00;6095389;19;20040;-74
2023/06/03 05:39:22;;;;;;;11.50;5.32;;;;;;;14.78;67.38;102452.69;6100032;19;20028;-74
2023/06/03 05:41:33;;;;;;;8.30;4.65;;;;;;;15.07;67.17;102446.44;6101555;19;20010;-74
2023/06/03 05:43:38;;;;;;;11.60;5.25;;;;;;;15.13;65.90;102442.72;6102886;19;20015;-74
2023/06/03 05:45:43;;;;;;;9.60;5.07;;;;;;;15.20;65.65;102438.09;6097324;19;20003;-73
2023/06/03 05:47:48;;;;;;;9.77;5.03;;;;;;;15.35;63.87;102443.72;6100189;19;20079;-73
2023/06/03 05:49:55;;;;;;;8.65;4.78;;;;;;;15.47;63.34;102437.09;6102945;19;20686;-75
2023/06/03 05:52:11;;;;;;;14.50;5.03;;;;;;;15.64;62.35;102439.19;6094578;19;20015;-75
2023/06/03 05:54:18;;;;;;;9.52;4.68;;;;;;;15.77;61.07;102448.44;6096066;19;20376;-75
2023/06/03 05:56:24;;;;;;;12.43;6.07;;;;;;;15.79;61.30;102440.41;6098011;19;20036;-75
2023/06/03 05:58:33;;;;;;;9.40;4.75;;;;;;;16.04;60.70;102442.16;6072754;19;20053;-76
2023/06/03 06:00:38;;;;;;;8.75;5.03;;;;;;;15.96;59.53;102442.47;6102189;19;20649;-76
2023/06/03 06:02:47;;;;;;;8.50;4.07;;;;;;;15.99;58.68;102437.03;6099179;19;20050;-74
2023/06/03 06:04:52;;;;;;;9.30;4.90;;;;;;;16.21;59.21;102442.38;6099904;19;20530;-76
2023/06/03 06:07:02;;;;;;;8.32;4.50;;;;;;;16.22;58.72;102444.13;6100255;19;20447;-76
2023/06/03 06:09:09;;;;;;;10.45;4.57;;;;;;;16.40;58.21;102440.75;6101363;19;20490;-75
2023/06/03 06:11:15;;;;;;;9.45;4.55;;;;;;;16.47;56.41;102444.00;6100550;19;20346;-75
2023/06/03 06:13:22;;;;;;;10.80;4.43;;;;;;;16.80;57.49;102446.28;6097044;19;20523;-75
2023/06/03 06:15:36;;;;;;;8.75;4.35;;;;;;;16.97;56.28;102443.75;6100999;19;20014;-76
2023/06/03 06:17:41;;;;;;;9.32;4.38;;;;;;;16.91;55.39;102444.03;6096405;19;20036;-75
2023/06/03 06:19:48;;;;;;;10.32;4.10;;;;;;;17.13;55.08;102437.81;6101686;19;20011;-75
2023/06/03 06:21:53;;;;;;;9.30;4.57;;;;;;;17.32;54.72;102446.72;6102737;19;19998;-75
2023/06/03 06:23:58;;;;;;;12.00;4.97;;;;;;;17.48;53.95;102442.47;6098785;19;20780;-75
2023/06/03 06:26:04;;;;;;;11.93;4.60;;;;;;;17.25;53.15;102447.94;6096926;19;20007;-76
2023/06/03 06:28:09;;;;;;;8.95;4.35;;;;;;;17.49;52.74;102452.16;6099042;19;20014;-76
2023/06/03 06:30:23;;;;;;;9.80;4.38;;;;;;;17.44;53.16;102442.66;6097966;19;20487;-76
2023/06/03 06:32:33;;;;;;;9.57;4.05;;;;;;;17.66;52.16;102447.88;6098959;19;20010;-76
2023/06/03 06:34:37;;;;;;;8.43;4.18;;;;;;;17.88;52.51;102454.00;6073842;19;20428;-75
2023/06/03 06:36:47;;;;;;;8.25;3.75;;;;;;;18.25;51.38;102444.31;6097838;19;20043;-73
2023/06/03 06:38:54;;;;;;;8.98;4.40;;;;;;;18.03;50.45;102435.59;6098522;19;20021;-76
2023/06/03 06:41:00;;;;;;;7.97;3.95;;;;;;;18.09;50.81;102438.88;6097749;19;20010;-76
2023/06/03 06:43:13;;;;;;;9.23;3.65;;;;;;;18.17;50.97;102438.50;6102258;19;20045;-75
2023/06/03 06:45:26;;;;;;;7.20;3.92;;;;;;;18.19;50.35;102440.16;6095859;19;20461;-75
2023/06/03 06:47:41;;;;;;;9.23;4.18;;;;;;;18.29;50.37;102437.06;6103698;19;20523;-75
2023/06/03 06:49:47;;;;;;;10.25;3.97;;;;;;;18.53;49.85;102435.84;6100784;19;20295;-75
2023/06/03 06:51:58;;;;;;;6.15;3.38;;;;;;;18.80;49.30;102435.47;6099110;19;20020;-77
2023/06/03 06:54:04;;;;;;;7.60;3.65;;;;;;;18.71;48.68;102434.09;6098127;19;20018;-75
2023/06/03 06:56:11;;;;;;;7.88;3.75;;;;;;;18.98;48.57;102433.69;6103312;19;20016;-75
2023/06/03 06:58:16;;;;;;;7.63;3.40;;;;;;;19.08;48.10;102434.94;6101534;19;20030;-76
2023/06/03 07:00:22;;;;;;;7.80;3.55;;;;;;;18.79;47.45;102441.75;6101115;19;20097;-75
2023/06/03 07:02:30;;;;;;;8.77;4.25;;;;;;;18.90;47.45;102436.75;6101617;19;20358;-77
2023/06/03 07:04:39;;;;;;;8.02;3.83;;;;;;;19.25;46.79;102429.63;6097839;19;20467;-76
2023/06/03 07:06:44;;;;;;;8.85;3.85;;;;;;;19.41;47.31;102440.34;6102791;19;20010;-77
2023/06/03 07:08:50;;;;;;;7.90;3.83;;;;;;;19.51;47.12;102435.41;6097999;19;20063;-76
2023/06/03 07:10:59;;;;;;;6.07;3.42;;;;;;;19.38;46.24;102434.31;6103836;19;20011;-76
2023/06/03 07:13:11;;;;;;;6.38;3.22;;;;;;;19.49;47.15;102439.97;6106152;19;20255;-76
2023/06/03 07:15:17;;;;;;;8.30;3.80;;;;;;;19.48;45.37;102446.22;6101874;19;20021;-76
2023/06/03 07:17:22;;;;;;;8.68;4.25;;;;;;;19.60;45.88;102434.91;6097889;19;20130;-75
2023/06/03 07:19:31;;;;;;;8.07;4.03;;;;;;;19.93;44.71;102444.72;6103370;19;20003;-77
2023/06/03 07:21:40;;;;;;;7.78;3.67;;;;;;;20.16;45.56;102438.97;6105193;19;20023;-74
2023/06/03 07:23:50;;;;;;;9.82;3.63;;;;;;;20.05;44.56;102438.72;6100711;19;20360;-76
2023/06/03 07:26:01;;;;;;;6.03;3.08;;;;;;;20.38;44.11;102437.81;6102628;19;20007;-77
2023/06/03 07:28:11;;;;;;;7.05;3.17;;;;;;;20.65;44.13;102434.53;6108217;19;20020;-74
2023/06/03 07:30:18;;;;;;;6.63;2.95;;;;;;;20.59;43.56;102436.63;6108442;19;20011;-75
2023/06/03 07:32:27;;;;;;;9.05;3.28;;;;;;;20.50;43.45;102439.75;6107049;19;20010;-77
2023/06/03 07:34:34;;;;;;;6.78;3.30;;;;;;;20.67;42.68;102437.97;6103463;19;20007;-76
2023/06/03 07:36:43;;;;;;;6.65;2.90;;;;;;;20.77;42.84;102439.16;6107899;19;20043;-75
2023/06/03 07:39:00;;;;;;;8.20;3.28;;;;;;;20.76;43.71;102448.97;6110173;19;20094;-77
2023/06/03 07:41:05;;;;;;;8.45;3.40;;;;;;;20.91;42.62;102441.91;6109856;19;20027;-75
2023/06/03 07:43:11;;;;;;;5.85;3.03;;;;;;;21.36;42.86;102436.56;6108758;19;20499;-75
2023/06/03 07:45:16;;;;;;;6.70;3.55;;;;;;;21.72;41.90;102444.16;6106291;19;20014;-75
2023/06/03 07:47:22;;;;;;;4.72;2.95;;;;;;;21.51;40.94;102445.47;6084757;19;20480;-76
2023/06/03 07:49:29;;;;;;;7.07;3.10;;;;;;;21.50;41.14;102443.78;6102293;19;20002;-75
2023/06/03 07:51:38;;;;;;;5.65;2.90;;;;;;;21.47;41.62;102445.69;6096132;19;20482;-76
2023/06/03 07:53:45;;;;;;;7.05;3.20;;;;;;;21.85;39.66;102439.78;6095032;19;20014;-76
2023/06/03 07:55:51;;;;;;;6.05;2.60;;;;;;;21.67;40.35;102441.78;6099165;19;20062;-75
2023/06/03 07:57:56;;;;;;;6.70;3.00;;;;;;;21.95;39.84;102441.88;6098952;19;20020;-74
2023/06/03 08:00:01;;;;;;;4.80;2.40;;;;;;;22.29;39.29;102443.28;6097400;19;20023;-76
2023/06/03 08:02:13;;;;;;;8.23;3.20;;;;;;;22.07;39.18;102449.13;6101220;19;20039;-75
2023/06/03 08:04:29;;;;;;;5.95;2.80;;;;;;;22.00;38.36;102458.50;6102627;19;20379;-76
2023/06/03 08:06:36;;;;;;;8.63;3.40;;;;;;;21.98;38.52;102455.91;6091516;19;20027;-75
2023/06/03 08:08:41;;;;;;;5.50;3.05;;;;;;;22.03;38.59;102453.78;6094911;19;20043;-75
2023/06/03 08:10:50;;;;;;;6.10;3.05;;;;;;;22.51;37.18;102448.09;6093930;19;20424;-75
2023/06/03 08:12:58;;;;;;;5.43;2.40;;;;;;;22.40;37.37;102450.63;6095487;19;20071;-75
2023/06/03 08:15:08;;;;;;;7.72;2.65;;;;;;;22.75;37.84;102445.63;6097076;19;20011;-76
2023/06/03 08:17:16;;;;;;;4.57;2.33;;;;;;;23.04;36.85;102445.50;6091102;19;20015;-75
2023/06/03 08:19:22;;;;;;;6.05;2.80;;;;;;;22.95;36.25;102442.44;6093879;19;20335;-75
2023/06/03 08:21:33;;;;;;;5.10;2.20;;;;;;;23.28;35.97;102449.19;6092334;19;20027;-74
2023/06/03 08:23:39;;;;;;;3.92;2.53;;;;;;;23.30;35.18;102441.91;6092133;19;20519;-75
2023/06/03 08:25:49;;;;;;;4.93;2.25;;;;;;;23.16;34.05;102445.53;6096342;19;20010;-74
2023/06/03 08:27:55;;;;;;;4.82;2.20;;;;;;;23.31;34.35;102443.63;6097010;19;20002;-75
2023/06/03 08:30:03;;;;;;;7.40;2.17;;;;;;;23.32;32.00;102444.47;6092013;19;19999;-73
2023/06/03 08:32:09;;;;;;;3.97;1.80;;;;;;;23.05;31.48;102445.41;6095057;19;20010;-76
2023/06/03 08:34:14;;;;;;;4.65;1.70;;;;;;;23.04;30.93;102448.19;6094537;19;20011;-76
2023/06/03 08:36:22;;;;;;;6.97;1.80;;;;;;;23.25;29.83;102444.06;6092966;19;20761;-76
2023/06/03 08:38:27;;;;;;;5.05;1.80;;;;;;;23.36;30.71;102432.59;6092543;19;20003;-75
2023/06/03 08:40:36;;;;;;;4.25;1.92;;;;;;;23.59;30.42;102436.31;6091453;19;20082;-76
2023/06/03 08:42:46;;;;;;;4.00;1.95;;;;;;;23.04;30.05;102435.66;6092898;19;20019;-75
2023/06/03 08:45:01;;;;;;;4.60;1.98;;;;;;;23.23;30.36;102429.88;6092847;19;20375;-76
2023/06/03 08:47:15;;;;;;;3.30;1.73;;;;;;;23.11;31.04;102425.34;6091254;19;20118;-75
2023/06/03 08:49:31;;;;;;;4.03;2.05;;;;;;;23.23;30.24;102417.31;6093805;19;20491;-75
2023/06/03 08:51:41;;;;;;;2.97;1.83;;;;;;;23.29;31.49;102429.44;6096460;19;20524;-74
2023/06/03 08:53:55;;;;;;;7.80;2.28;;;;;;;23.23;30.87;102428.06;6096412;19;20086;-76
2023/06/03 08:56:02;;;;;;;4.88;2.35;;;;;;;23.18;30.47;102426.66;6095262;19;20112;-73
2023/06/03 08:58:13;;;;;;;3.75;2.10;;;;;;;23.62;30.94;102425.38;6095520;19;20022;-73
2023/06/03 09:00:24;;;;;;;11.90;2.72;;;;;;;23.00;30.70;102429.63;6092259;19;20035;-74
2023/06/03 09:02:34;;;;;;;4.57;2.00;;;;;;;23.57;30.98;102428.38;6101728;19;20011;-73
2023/06/03 09:04:41;;;;;;;4.18;1.98;;;;;;;24.09;31.08;102424.69;6101483;19;20019;-73
2023/06/03 09:06:49;;;;;;;3.22;2.00;;;;;;;23.85;29.25;102419.25;6102584;19;20353;-75
2023/06/03 09:08:55;;;;;;;5.50;2.17;;;;;;;23.99;28.76;102423.63;6101372;19;20014;-76
2023/06/03 09:11:01;;;;;;;4.03;1.90;;;;;;;23.71;29.57;102415.81;6094768;19;20620;-74
2023/06/03 09:13:10;;;;;;;3.55;2.10;;;;;;;23.77;29.13;102420.78;6101717;19;20006;-74
2023/06/03 09:15:19;;;;;;;7.97;2.45;;;;;;;23.47;29.29;102410.38;6099483;19;20991;-75
2023/06/03 09:17:27;;;;;;;5.32;1.98;;;;;;;23.27;29.64;102427.84;6098036;19;20010;-74
2023/06/03 09:19:33;;;;;;;4.82;2.03;;;;;;;23.14;29.50;102426.00;6101840;19;20007;-73
2023/06/03 09:21:45;;;;;;;5.35;2.08;;;;;;;23.43;29.71;102421.31;6100150;19;20720;-74
2023/06/03 09:23:51;;;;;;;5.50;2.20;;;;;;;23.54;29.81;102425.03;6100865;19;20007;-75
2023/06/03 09:25:59;;;;;;;5.57;2.13;;;;;;;23.93;30.13;102417.84;6103844;19;20014;-74
2023/06/03 09:28:05;;;;;;;3.55;2.30;;;;;;;23.81;29.94;102430.34;6101717;19;20016;-75
2023/06/03 09:30:13;;;;;;;4.40;2.28;;;;;;;23.57;29.45;102433.75;6082279;19;20453;-75
2023/06/03 09:32:20;;;;;;;4.05;2.30;;;;;;;23.68;29.34;102424.94;6101949;19;20740;-74
2023/06/03 09:34:25;;;;;;;4.90;2.08;;;;;;;23.53;28.23;102429.56;6094901;19;20010;-75
2023/06/03 09:36:46;;;;;;;4.47;1.90;;;;;;;23.55;29.19;102424.09;6097926;19;20450;-75
2023/06/03 09:38:56;;;;;;;3.83;2.20;;;;;;;23.36;29.27;102421.84;6078906;19;20004;-75
2023/06/03 09:41:16;;;;;;;5.97;2.20;;;;;;;23.62;29.50;102420.03;6101966;19;20374;-75
2023/06/03 09:43:22;;;;;;;2.28;1.75;;;;;;;23.63;29.58;102427.94;6099533;19;20078;-75
2023/06/03 09:45:32;;;;;;;5.45;2.17;;;;;;;23.75;29.14;102418.22;6103049;19;20006;-73
2023/06/03 09:47:41;;;;;;;4.07;2.10;;;;;;;23.95;28.50;102422.13;6098315;19;20699;-74
2023/06/03 09:50:04;;;;;;;6.88;2.13;;;;;;;23.83;28.51;102421.22;6099274;19;20003;-75
2023/06/03 09:52:11;;;;;;;4.05;1.98;;;;;;;23.59;28.60;102418.41;6100174;19;20040;-74
2023/06/03 09:54:23;;;;;;;4.47;2.13;;;;;;;23.85;28.33;102416.56;6096852;19;20006;-75
2023/06/03 09:56:30;;;;;;;6.03;2.10;;;;;;;23.59;28.07;102414.84;6079204;19;20025;-74